createdAt,value
2022-08-20T00:00:13.977Z,11.77
2022-08-20T00:02:43.449Z,11.50
2022-08-20T00:05:10.957Z,12.60
2022-08-20T00:07:37.535Z,11.73
2022-08-20T00:10:06.848Z,9.40
2022-08-20T00:12:35.112Z,7.53
2022-08-20T00:15:01.922Z,7.17
2022-08-20T00:17:34.795Z,6.90
2022-08-20T00:20:01.328Z,7.17
2022-08-20T00:22:28.132Z,7.00
2022-08-20T00:24:54.629Z,7.00
2022-08-20T00:27:21.126Z,6.20
2022-08-20T00:29:47.889Z,5.63
2022-08-20T00:32:14.499Z,5.97
2022-08-20T00:34:42.390Z,5.60
2022-08-20T00:37:09.251Z,5.63
2022-08-20T00:39:36.182Z,6.23
2022-08-20T00:42:03.134Z,5.50
2022-08-20T00:44:29.746Z,5.83
2022-08-20T00:46:56.272Z,5.70
2022-08-20T00:49:28.088Z,5.60
2022-08-20T00:52:00.128Z,5.33
2022-08-20T00:54:39.742Z,6.00
2022-08-20T00:57:10.590Z,6.13
2022-08-20T00:59:40.120Z,5.57
2022-08-20T01:02:10.300Z,5.90
2022-08-20T01:04:37.378Z,6.63
2022-08-20T01:07:05.916Z,5.97
2022-08-20T01:09:58.210Z,5.57
2022-08-20T01:12:20.416Z,6.43
2022-08-20T01:14:47.437Z,5.60
2022-08-20T01:17:24.692Z,6.17
2022-08-20T01:19:55.069Z,5.73
2022-08-20T01:22:47.641Z,6.10
2022-08-20T01:25:23.936Z,5.57
2022-08-20T01:27:53.220Z,6.00
2022-08-20T01:30:25.300Z,8.40
2022-08-20T01:32:51.809Z,5.73
2022-08-20T01:35:21.144Z,5.50
2022-08-20T01:37:47.636Z,5.83
2022-08-20T01:40:17.706Z,6.40
2022-08-20T01:42:58.715Z,5.87
2022-08-20T01:45:29.243Z,6.60
2022-08-20T01:47:57.433Z,5.93
2022-08-20T01:50:26.562Z,6.90
2022-08-20T01:53:16.775Z,6.27
2022-08-20T01:55:43.733Z,5.93
2022-08-20T01:58:10.567Z,5.83
2022-08-20T02:00:37.457Z,6.33
2022-08-20T02:03:04.274Z,6.40
2022-08-20T02:05:33.225Z,6.20
2022-08-20T02:08:00.193Z,6.60
2022-08-20T02:10:26.750Z,6.53
2022-08-20T02:12:53.331Z,7.67
2022-08-20T02:15:34.794Z,6.53
2022-08-20T02:18:05.753Z,7.10
2022-08-20T02:20:35.041Z,7.87
2022-08-20T02:23:01.673Z,7.50
2022-08-20T02:25:31.051Z,7.80
2022-08-20T02:27:58.069Z,9.13
2022-08-20T02:30:29.185Z,7.17
2022-08-20T02:33:00.891Z,7.03
2022-08-20T02:35:28.096Z,9.43
2022-08-20T02:37:55.465Z,8.00
2022-08-20T02:40:27.325Z,7.17
2022-08-20T02:42:57.721Z,6.50
2022-08-20T02:45:24.293Z,7.80
2022-08-20T02:47:53.831Z,8.10
2022-08-20T02:50:21.501Z,8.87
2022-08-20T02:52:51.471Z,10.37
2022-08-20T02:55:27.860Z,11.60
2022-08-20T02:57:58.519Z,11.03
2022-08-20T03:00:26.606Z,11.30
2022-08-20T03:02:53.076Z,13.47
2022-08-20T03:05:19.646Z,13.37
2022-08-20T03:07:48.953Z,14.03
2022-08-20T03:10:16.046Z,13.33
2022-08-20T03:12:42.592Z,13.47
2022-08-20T03:15:17.495Z,12.77
2022-08-20T03:17:45.258Z,13.10
2022-08-20T03:20:13.364Z,13.33
2022-08-20T03:22:40.532Z,12.93
2022-08-20T03:25:07.450Z,12.27
2022-08-20T03:27:36.284Z,12.60
2022-08-20T03:30:05.800Z,13.33
2022-08-20T03:32:32.312Z,14.80
2022-08-20T03:34:58.838Z,14.70
2022-08-20T03:37:25.401Z,15.73
2022-08-20T03:39:52.171Z,15.83
2022-08-20T03:42:18.759Z,19.20
2022-08-20T03:44:45.237Z,18.63
2022-08-20T03:47:12.058Z,18.77
2022-08-20T03:49:38.530Z,18.43
2022-08-20T03:52:05.538Z,19.70
2022-08-20T03:54:32.314Z,18.53
2022-08-20T03:56:59.816Z,18.73
2022-08-20T03:59:26.369Z,19.67
2022-08-20T04:01:52.910Z,21.83
2022-08-20T04:04:20.536Z,21.40
2022-08-20T04:06:47.646Z,21.37
2022-08-20T04:09:14.783Z,20.17
2022-08-20T04:11:42.281Z,20.53
2022-08-20T04:14:11.113Z,20.50
2022-08-20T04:16:39.518Z,20.50
2022-08-20T04:19:06.275Z,19.80
2022-08-20T04:21:33.946Z,21.80
2022-08-20T04:24:02.501Z,19.93
2022-08-20T04:26:29.702Z,22.90
2022-08-20T04:28:56.209Z,22.23
2022-08-20T04:31:33.377Z,20.67
2022-08-20T04:34:07.929Z,21.13
2022-08-20T04:36:35.445Z,18.77
2022-08-20T04:39:02.007Z,22.07
2022-08-20T04:41:28.501Z,18.00
2022-08-20T04:43:56.185Z,17.63
2022-08-20T04:46:25.975Z,17.60
2022-08-20T04:48:52.828Z,18.47
2022-08-20T04:51:23.091Z,17.87
2022-08-20T04:53:53.341Z,17.20
2022-08-20T04:56:25.968Z,16.37
2022-08-20T04:58:54.463Z,19.03
2022-08-20T05:01:23.095Z,24.90
2022-08-20T05:03:50.213Z,28.00
2022-08-20T05:06:18.098Z,26.80
2022-08-20T05:08:45.010Z,28.77
2022-08-20T05:11:33.143Z,27.77
2022-08-20T05:13:58.395Z,29.93
2022-08-20T05:16:25.006Z,29.40
2022-08-20T05:18:52.623Z,26.07
2022-08-20T05:21:20.306Z,32.10
2022-08-20T05:23:47.227Z,24.73
2022-08-20T05:26:16.045Z,28.80
2022-08-20T05:28:49.972Z,23.27
2022-08-20T05:31:24.034Z,24.63
2022-08-20T05:33:59.440Z,25.80
2022-08-20T05:36:25.930Z,23.30
2022-08-20T05:38:54.682Z,22.23
2022-08-20T05:41:27.590Z,22.83
2022-08-20T05:43:56.305Z,23.50
2022-08-20T05:46:23.177Z,21.07
2022-08-20T05:48:49.707Z,20.60
2022-08-20T05:51:16.233Z,20.23
2022-08-20T05:53:42.713Z,19.50
2022-08-20T05:56:11.299Z,19.30
2022-08-20T05:58:38.067Z,18.73
2022-08-20T06:01:05.389Z,19.80
2022-08-20T06:03:52.576Z,18.37
2022-08-20T06:06:44.134Z,15.97
2022-08-20T06:09:05.804Z,15.87
2022-08-20T06:11:36.483Z,16.80
2022-08-20T06:14:03.862Z,16.60
2022-08-20T06:16:30.513Z,15.30
2022-08-20T06:18:58.627Z,15.10
2022-08-20T06:21:25.692Z,14.67
2022-08-20T06:23:57.336Z,15.27
2022-08-20T06:26:30.071Z,13.30
2022-08-20T06:29:01.042Z,9.97
2022-08-20T06:31:27.999Z,10.27
2022-08-20T06:33:54.598Z,10.00
2022-08-20T06:36:21.306Z,11.47
2022-08-20T06:38:47.826Z,9.53
2022-08-20T06:41:14.327Z,9.70
2022-08-20T06:43:41.089Z,9.37
2022-08-20T06:46:08.249Z,9.83
2022-08-20T06:48:34.780Z,10.03
2022-08-20T06:51:01.602Z,9.03
2022-08-20T06:53:29.080Z,11.33
2022-08-20T06:55:58.827Z,9.03
2022-08-20T06:58:37.988Z,9.47
2022-08-20T07:01:11.087Z,9.80
2022-08-20T07:03:54.456Z,9.40
2022-08-20T07:06:25.011Z,9.00
2022-08-20T07:08:51.567Z,9.07
2022-08-20T07:11:18.057Z,9.37
2022-08-20T07:13:45.427Z,9.23
2022-08-20T07:16:11.916Z,9.00
2022-08-20T07:18:38.397Z,8.50
2022-08-20T07:21:05.037Z,7.97
2022-08-20T07:23:31.808Z,7.63
2022-08-20T07:25:58.490Z,8.67
2022-08-20T07:28:28.687Z,6.00
2022-08-20T07:31:16.007Z,5.93
2022-08-20T07:33:44.557Z,7.63
2022-08-20T07:36:12.145Z,6.40
2022-08-20T07:38:38.803Z,6.33
2022-08-20T07:41:14.849Z,5.90
2022-08-20T07:43:43.742Z,6.40
2022-08-20T07:46:10.256Z,6.13
2022-08-20T07:48:40.076Z,7.77
2022-08-20T07:51:08.110Z,5.77
2022-08-20T07:53:36.506Z,6.03
2022-08-20T07:56:12.732Z,6.37
2022-08-20T07:58:42.252Z,6.87
2022-08-20T08:01:10.643Z,6.00
2022-08-20T08:03:40.679Z,6.90
2022-08-20T08:06:29.310Z,5.80
2022-08-20T08:09:03.482Z,5.70
2022-08-20T08:11:31.754Z,5.40
2022-08-20T08:13:59.101Z,6.83
2022-08-20T08:16:25.602Z,6.37
2022-08-20T08:18:56.365Z,4.90
2022-08-20T08:21:23.676Z,5.03
2022-08-20T08:23:50.677Z,4.07
2022-08-20T08:26:19.105Z,6.83
2022-08-20T08:28:46.458Z,5.50
2022-08-20T08:31:14.278Z,3.97
2022-08-20T08:33:42.163Z,4.67
2022-08-20T08:36:15.441Z,6.03
2022-08-20T08:38:44.726Z,5.30
2022-08-20T08:41:16.379Z,3.47
2022-08-20T08:43:51.188Z,3.67
2022-08-20T08:46:22.910Z,4.13
2022-08-20T08:48:53.526Z,3.00
2022-08-20T08:51:27.566Z,4.50
2022-08-20T08:53:55.837Z,4.97
2022-08-20T08:56:28.443Z,5.20
2022-08-20T08:58:59.448Z,4.30
2022-08-20T09:01:56.003Z,3.60
2022-08-20T09:04:14.428Z,3.10
2022-08-20T09:06:41.766Z,4.23
2022-08-20T09:09:18.981Z,16.60
2022-08-20T09:12:03.380Z,10.43
2022-08-20T09:14:30.559Z,5.67
2022-08-20T09:16:57.350Z,6.10
2022-08-20T09:19:23.889Z,4.37
2022-08-20T09:21:50.443Z,5.60
2022-08-20T09:24:17.222Z,4.83
2022-08-20T09:26:44.045Z,5.33
2022-08-20T09:29:12.163Z,6.83
2022-08-20T09:31:39.323Z,6.70
2022-08-20T09:34:06.374Z,7.23
2022-08-20T09:36:36.553Z,8.43
2022-08-20T09:39:08.037Z,7.80
2022-08-20T09:41:37.516Z,6.23
2022-08-20T09:44:04.292Z,10.40
2022-08-20T09:46:30.946Z,6.73
2022-08-20T09:48:57.552Z,8.80
2022-08-20T09:51:24.373Z,5.87
2022-08-20T09:53:51.624Z,5.77
2022-08-20T09:56:18.630Z,9.47
2022-08-20T09:58:53.920Z,7.37
2022-08-20T10:01:28.575Z,6.80
2022-08-20T10:03:56.272Z,5.10
2022-08-20T10:06:22.986Z,6.57
2022-08-20T10:08:55.826Z,7.57
2022-08-20T10:11:22.472Z,7.53
2022-08-20T10:13:49.034Z,6.70
2022-08-20T10:16:15.734Z,6.83
2022-08-20T10:18:42.301Z,7.00
2022-08-20T10:21:12.960Z,6.20
2022-08-20T10:23:39.880Z,5.57
2022-08-20T10:26:11.363Z,7.60
2022-08-20T10:28:41.034Z,5.83
2022-08-20T10:31:12.534Z,6.03
2022-08-20T10:33:51.124Z,6.57
2022-08-20T10:36:22.089Z,5.07
2022-08-20T10:38:49.687Z,8.33
2022-08-20T10:41:20.989Z,6.03
2022-08-20T10:43:53.165Z,6.33
2022-08-20T10:46:22.108Z,6.07
2022-08-20T10:48:49.891Z,6.10
2022-08-20T10:51:17.146Z,5.27
2022-08-20T10:53:47.776Z,5.87
2022-08-20T10:56:19.596Z,7.43
2022-08-20T10:58:49.075Z,7.27
2022-08-20T11:01:31.647Z,4.83
2022-08-20T11:04:03.210Z,4.70
2022-08-20T11:06:29.891Z,7.03
2022-08-20T11:08:56.979Z,3.90
2022-08-20T11:11:23.789Z,6.20
2022-08-20T11:13:50.257Z,4.33
2022-08-20T11:16:16.820Z,4.77
2022-08-20T11:18:47.497Z,6.53
2022-08-20T11:21:14.248Z,5.23
2022-08-20T11:23:40.747Z,3.90
2022-08-20T11:26:07.270Z,4.97
2022-08-20T11:28:33.865Z,5.07
2022-08-20T11:31:01.781Z,5.30
2022-08-20T11:33:28.531Z,4.63
2022-08-20T11:35:55.084Z,4.77
2022-08-20T11:38:21.553Z,4.37
2022-08-20T11:40:48.148Z,4.97
2022-08-20T11:43:16.726Z,3.53
2022-08-20T11:45:46.108Z,3.53
2022-08-20T11:48:12.724Z,3.40
2022-08-20T11:50:39.218Z,6.23
2022-08-20T11:53:05.691Z,5.33
2022-08-20T11:55:34.503Z,5.53
2022-08-20T11:58:01.690Z,5.43
2022-08-20T12:00:33.167Z,3.97
2022-08-20T12:03:08.998Z,3.87
2022-08-20T12:05:38.003Z,7.57
2022-08-20T12:08:05.145Z,5.07
2022-08-20T12:10:32.542Z,3.37
2022-08-20T12:12:59.288Z,5.50
2022-08-20T12:15:29.381Z,6.07
2022-08-20T12:17:56.211Z,7.10
2022-08-20T12:20:23.457Z,4.50
2022-08-20T12:22:50.327Z,4.67
2022-08-20T12:25:16.894Z,5.13
2022-08-20T12:27:43.377Z,3.43
2022-08-20T12:30:20.032Z,3.47
2022-08-20T12:32:46.960Z,4.67
2022-08-20T12:35:15.215Z,4.10
2022-08-20T12:37:42.610Z,4.40
2022-08-20T12:40:13.812Z,5.03
2022-08-20T12:42:40.667Z,5.33
2022-08-20T12:45:08.222Z,4.17
2022-08-20T12:47:37.685Z,4.97
2022-08-20T12:50:22.544Z,4.83
2022-08-20T12:52:49.796Z,3.97
2022-08-20T12:55:18.744Z,4.67
2022-08-20T12:57:52.489Z,7.90
2022-08-20T13:00:24.297Z,3.97
2022-08-20T13:02:55.195Z,6.50
2022-08-20T13:05:22.695Z,3.53
2022-08-20T13:07:49.584Z,4.87
2022-08-20T13:10:19.410Z,6.47
2022-08-20T13:12:45.921Z,3.97
2022-08-20T13:15:12.670Z,4.67
2022-08-20T13:17:39.642Z,5.53
2022-08-20T13:20:09.131Z,4.97
2022-08-20T13:22:35.757Z,3.77
2022-08-20T13:25:02.437Z,4.37
2022-08-20T13:27:28.939Z,3.43
2022-08-20T13:29:58.897Z,9.43
2022-08-20T13:32:26.836Z,3.47
2022-08-20T13:34:53.494Z,8.00
2022-08-20T13:37:25.618Z,4.83
2022-08-20T13:39:53.528Z,6.53
2022-08-20T13:42:20.707Z,4.83
2022-08-20T13:44:48.062Z,4.17
2022-08-20T13:47:15.064Z,5.97
2022-08-20T13:49:41.732Z,6.17
2022-08-20T13:52:08.435Z,5.37
2022-08-20T13:54:35.021Z,6.07
2022-08-20T13:57:14.790Z,4.70
2022-08-20T13:59:44.031Z,4.93
2022-08-20T14:02:11.741Z,4.33
2022-08-20T14:04:38.631Z,5.37
2022-08-20T14:07:16.659Z,5.37
2022-08-20T14:09:46.048Z,8.23
2022-08-20T14:12:13.494Z,4.67
2022-08-20T14:14:40.534Z,5.20
2022-08-20T14:17:16.326Z,5.00
2022-08-20T14:19:43.386Z,6.53
2022-08-20T14:22:09.955Z,3.93
2022-08-20T14:24:36.612Z,6.07
2022-08-20T14:27:07.802Z,6.20
2022-08-20T14:29:36.648Z,4.47
2022-08-20T14:32:04.580Z,8.83
2022-08-20T14:34:31.942Z,5.47
2022-08-20T14:37:19.754Z,5.13
2022-08-20T14:39:48.832Z,3.33
2022-08-20T14:42:16.009Z,5.27
2022-08-20T14:44:43.117Z,5.23
2022-08-20T14:47:18.659Z,3.77
2022-08-20T14:49:46.713Z,4.33
2022-08-20T14:52:14.517Z,6.37
2022-08-20T14:54:41.685Z,4.33
2022-08-20T14:57:12.804Z,4.90
2022-08-20T14:59:40.314Z,7.20
2022-08-20T15:02:08.453Z,7.07
2022-08-20T15:04:35.625Z,6.70
2022-08-20T15:07:07.961Z,6.67
2022-08-20T15:09:37.669Z,8.77
2022-08-20T15:12:04.665Z,6.33
2022-08-20T15:14:31.139Z,4.23
2022-08-20T15:16:58.155Z,4.67
2022-08-20T15:19:24.633Z,6.97
2022-08-20T15:21:51.304Z,5.80
2022-08-20T15:24:19.295Z,5.43
2022-08-20T15:26:46.276Z,5.33
2022-08-20T15:29:12.989Z,5.70
2022-08-20T15:31:49.627Z,6.60
2022-08-20T15:34:17.629Z,7.13
2022-08-20T15:36:44.952Z,4.40
2022-08-20T15:39:11.525Z,5.00
2022-08-20T15:41:38.005Z,8.10
2022-08-20T15:44:04.919Z,5.23
2022-08-20T15:46:36.161Z,5.93
2022-08-20T15:49:08.629Z,5.40
2022-08-20T15:51:42.913Z,5.77
2022-08-20T15:54:21.982Z,5.57
2022-08-20T15:57:04.363Z,6.60
2022-08-20T15:59:48.282Z,6.63
2022-08-20T16:02:40.186Z,8.30
2022-08-20T16:05:44.636Z,7.80
2022-08-20T16:08:22.715Z,5.50
2022-08-20T16:10:54.441Z,6.30
2022-08-20T16:13:36.489Z,5.87
2022-08-20T16:16:04.249Z,10.90
2022-08-20T16:18:33.745Z,5.97
2022-08-20T16:21:03.591Z,4.63
2022-08-20T16:23:35.487Z,5.57
2022-08-20T16:26:26.405Z,6.03
2022-08-20T16:29:20.199Z,4.23
2022-08-20T16:31:51.973Z,3.97
2022-08-20T16:34:34.414Z,7.07
2022-08-20T16:37:19.441Z,7.30
2022-08-20T16:39:56.251Z,5.37
2022-08-20T16:42:24.802Z,5.07
2022-08-20T16:44:54.875Z,7.53
2022-08-20T16:47:27.141Z,5.73
2022-08-20T16:50:12.666Z,6.00
2022-08-20T16:52:41.852Z,6.13
2022-08-20T16:55:08.943Z,8.03
2022-08-20T16:57:35.540Z,6.23
2022-08-20T17:00:16.837Z,6.90
2022-08-20T17:03:01.346Z,6.43
2022-08-20T17:05:31.942Z,5.47
2022-08-20T17:08:03.716Z,7.70
2022-08-20T17:10:37.502Z,6.33
2022-08-20T17:13:19.795Z,4.50
2022-08-20T17:15:54.206Z,5.33
2022-08-20T17:18:42.037Z,4.10
2022-08-20T17:21:11.533Z,4.30
2022-08-20T17:23:55.221Z,3.93
2022-08-20T17:26:30.479Z,4.03
2022-08-20T17:29:00.453Z,4.63
2022-08-20T17:31:31.545Z,4.43
2022-08-20T17:34:23.296Z,6.40
2022-08-20T17:37:05.710Z,5.63
2022-08-20T17:39:32.322Z,4.93
2022-08-20T17:42:08.932Z,6.50
2022-08-20T17:44:38.210Z,4.93
2022-08-20T17:47:11.866Z,5.17
2022-08-20T17:50:03.881Z,4.17
2022-08-20T17:52:35.349Z,6.97
2022-08-20T17:55:03.042Z,7.13
2022-08-20T17:57:33.833Z,8.23
2022-08-20T18:00:25.680Z,4.47
2022-08-20T18:03:14.096Z,4.43
2022-08-20T18:05:40.650Z,7.70
2022-08-20T18:08:20.698Z,4.73
2022-08-20T18:11:14.582Z,6.70
2022-08-20T18:13:52.756Z,6.07
2022-08-20T18:16:28.197Z,4.50
2022-08-20T18:19:03.806Z,5.53
2022-08-20T18:21:41.752Z,4.07
2022-08-20T18:24:12.398Z,5.07
2022-08-20T18:26:44.029Z,5.20
2022-08-20T18:29:37.398Z,5.93
2022-08-20T18:32:06.657Z,2.97
2022-08-20T18:34:39.662Z,6.23
2022-08-20T18:37:22.197Z,4.60
2022-08-20T18:39:50.580Z,5.20
2022-08-20T18:42:31.385Z,5.03
2022-08-20T18:44:58.917Z,6.33
2022-08-20T18:47:34.487Z,6.30
2022-08-20T18:50:07.498Z,3.97
2022-08-20T18:52:49.011Z,4.30
2022-08-20T18:55:36.951Z,5.10
2022-08-20T18:58:07.193Z,4.67
2022-08-20T19:00:41.270Z,5.30
2022-08-20T19:03:09.950Z,4.40
2022-08-20T19:06:08.537Z,5.17
2022-08-20T19:08:51.581Z,3.07
2022-08-20T19:12:03.322Z,4.27
2022-08-20T19:14:41.180Z,7.27
2022-08-20T19:17:15.840Z,5.67
2022-08-20T19:19:44.080Z,4.50
2022-08-20T19:22:13.544Z,3.73
2022-08-20T19:24:44.329Z,5.07
2022-08-20T19:27:12.400Z,6.23
2022-08-20T19:29:50.710Z,5.30
2022-08-20T19:32:26.973Z,6.40
2022-08-20T19:34:56.432Z,5.33
2022-08-20T19:37:39.767Z,6.90
2022-08-20T19:40:38.905Z,3.93
2022-08-20T19:43:12.848Z,3.83
2022-08-20T19:45:44.547Z,7.80
2022-08-20T19:48:36.916Z,4.90
2022-08-20T19:51:13.650Z,6.70
2022-08-20T19:53:46.245Z,3.67
2022-08-20T19:56:19.484Z,3.50
2022-08-20T19:58:57.329Z,5.60
2022-08-20T20:01:24.545Z,6.57
2022-08-20T20:03:57.603Z,5.53
2022-08-20T20:06:25.692Z,5.17
2022-08-20T20:08:59.830Z,4.97
2022-08-20T20:11:49.729Z,4.17
2022-08-20T20:14:17.685Z,6.00
2022-08-20T20:16:46.385Z,7.80
2022-08-20T20:19:29.366Z,5.33
2022-08-20T20:22:18.999Z,5.90
2022-08-20T20:25:03.065Z,5.03
2022-08-20T20:27:32.201Z,7.53
2022-08-20T20:30:11.121Z,7.07
2022-08-20T20:32:48.346Z,6.23
2022-08-20T20:35:31.649Z,6.40
2022-08-20T20:38:10.771Z,6.40
2022-08-20T20:40:47.169Z,4.30
2022-08-20T20:43:30.872Z,6.90
2022-08-20T20:46:19.793Z,5.43
2022-08-20T20:48:53.009Z,5.87
2022-08-20T20:51:25.782Z,6.27
2022-08-20T20:53:54.985Z,8.87
2022-08-20T20:56:37.844Z,4.93
2022-08-20T20:59:06.999Z,6.10
2022-08-20T21:01:49.870Z,4.60
2022-08-20T21:04:22.178Z,7.60
2022-08-20T21:06:49.736Z,5.40
2022-08-20T21:09:16.767Z,5.13
2022-08-20T21:11:43.333Z,5.50
2022-08-20T21:14:10.171Z,5.77
2022-08-20T21:16:36.723Z,7.10
2022-08-20T21:19:07.846Z,4.83
2022-08-20T21:21:34.620Z,5.00
2022-08-20T21:24:01.272Z,6.47
2022-08-20T21:26:28.221Z,3.50
2022-08-20T21:28:55.012Z,6.03
2022-08-20T21:31:21.748Z,6.03
2022-08-20T21:33:48.477Z,4.70
2022-08-20T21:36:15.618Z,5.27
2022-08-20T21:38:42.111Z,4.27
2022-08-20T21:41:08.656Z,5.10
2022-08-20T21:43:35.995Z,8.27
2022-08-20T21:46:04.088Z,7.53
2022-08-20T21:48:31.772Z,6.43
2022-08-20T21:50:58.248Z,7.00
2022-08-20T21:53:24.764Z,6.27
2022-08-20T21:55:51.806Z,6.90
2022-08-20T21:58:19.013Z,7.23
2022-08-20T22:00:48.557Z,4.90
2022-08-20T22:03:16.929Z,6.63
2022-08-20T22:05:47.134Z,8.60
2022-08-20T22:08:13.808Z,5.70
2022-08-20T22:10:40.515Z,8.30
2022-08-20T22:13:07.409Z,6.13
2022-08-20T22:15:34.207Z,6.87
2022-08-20T22:18:01.500Z,8.70
2022-08-20T22:20:29.874Z,9.57
2022-08-20T22:22:57.865Z,7.87
2022-08-20T22:25:24.542Z,8.53
2022-08-20T22:27:51.043Z,10.63
2022-08-20T22:30:17.656Z,8.50
2022-08-20T22:32:51.763Z,10.00
2022-08-20T22:35:19.284Z,9.40
2022-08-20T22:37:45.941Z,7.57
2022-08-20T22:40:12.696Z,7.63
2022-08-20T22:42:39.812Z,6.83
2022-08-20T22:45:14.941Z,7.13
2022-08-20T22:47:42.767Z,8.13
2022-08-20T22:50:11.331Z,7.67
2022-08-20T22:52:39.493Z,7.87
2022-08-20T22:55:06.826Z,8.17
2022-08-20T22:57:34.271Z,6.20
2022-08-20T23:00:01.375Z,6.43
2022-08-20T23:02:28.440Z,6.37
2022-08-20T23:04:55.218Z,4.60
2022-08-20T23:07:22.433Z,8.53
2022-08-20T23:09:50.056Z,7.90
2022-08-20T23:12:16.648Z,6.30
2022-08-20T23:14:43.129Z,6.27
2022-08-20T23:17:20.057Z,6.17
2022-08-20T23:19:47.945Z,5.90
2022-08-20T23:22:15.280Z,5.43
2022-08-20T23:24:42.122Z,6.77
2022-08-20T23:27:10.738Z,6.43
2022-08-20T23:29:37.697Z,4.77
2022-08-20T23:32:04.468Z,5.67
2022-08-20T23:34:30.976Z,9.77
2022-08-20T23:36:57.782Z,5.30
2022-08-20T23:39:25.283Z,6.80
2022-08-20T23:41:52.116Z,7.80
2022-08-20T23:44:26.656Z,5.93
2022-08-20T23:46:58.891Z,7.23
2022-08-20T23:49:26.698Z,5.97
2022-08-20T23:51:53.713Z,5.57
2022-08-20T23:54:20.249Z,6.00
2022-08-20T23:56:46.906Z,7.03
2022-08-20T23:59:13.386Z,6.53
